sensor_id;sensor_type;location;lat;lon;timestamp;temperature;humidity
29453;DHT22;16424;50.956;5.320;2023-08-06T00:00:19;16.00;99.90
29453;DHT22;16424;50.956;5.320;2023-08-06T00:02:45;16.00;99.90
29453;DHT22;16424;50.956;5.320;2023-08-06T00:05:10;16.00;99.90
29453;DHT22;16424;50.956;5.320;2023-08-06T00:07:36;16.10;99.90
29453;DHT22;16424;50.956;5.320;2023-08-06T00:10:02;16.10;99.90
29453;DHT22;16424;50.956;5.320;2023-08-06T00:12:28;16.20;99.90
29453;DHT22;16424;50.956;5.320;2023-08-06T00:14:53;16.20;99.90
29453;DHT22;16424;50.956;5.320;2023-08-06T00:17:19;16.10;99.90
29453;DHT22;16424;50.956;5.320;2023-08-06T00:19:45;16.20;99.90
29453;DHT22;16424;50.956;5.320;2023-08-06T00:22:10;16.30;99.90
29453;DHT22;16424;50.956;5.320;2023-08-06T00:24:36;16.40;99.90
29453;DHT22;16424;50.956;5.320;2023-08-06T00:27:02;16.30;99.90
29453;DHT22;16424;50.956;5.320;2023-08-06T00:29:28;16.20;99.90
29453;DHT22;16424;50.956;5.320;2023-08-06T00:31:53;16.30;99.90
29453;DHT22;16424;50.956;5.320;2023-08-06T00:34:19;16.40;99.90
29453;DHT22;16424;50.956;5.320;2023-08-06T00:36:45;16.40;99.90
29453;DHT22;16424;50.956;5.320;2023-08-06T00:39:11;16.50;99.90
29453;DHT22;16424;50.956;5.320;2023-08-06T00:41:36;16.40;99.90
29453;DHT22;16424;50.956;5.320;2023-08-06T00:44:02;16.40;99.90
29453;DHT22;16424;50.956;5.320;2023-08-06T00:46:28;16.40;99.90
29453;DHT22;16424;50.956;5.320;2023-08-06T00:48:54;16.30;99.90
29453;DHT22;16424;50.956;5.320;2023-08-06T00:51:20;16.30;99.90
29453;DHT22;16424;50.956;5.320;2023-08-06T00:53:48;16.20;99.90
29453;DHT22;16424;50.956;5.320;2023-08-06T00:56:14;16.20;99.90
29453;DHT22;16424;50.956;5.320;2023-08-06T00:58:40;16.10;99.90
29453;DHT22;16424;50.956;5.320;2023-08-06T01:01:05;15.90;99.90
29453;DHT22;16424;50.956;5.320;2023-08-06T01:03:32;16.00;99.90
29453;DHT22;16424;50.956;5.320;2023-08-06T01:05:57;15.90;99.90
29453;DHT22;16424;50.956;5.320;2023-08-06T01:13:33;15.90;99.90
29453;DHT22;16424;50.956;5.320;2023-08-06T01:16:03;16.00;99.90
29453;DHT22;16424;50.956;5.320;2023-08-06T01:18:31;16.00;99.90
29453;DHT22;16424;50.956;5.320;2023-08-06T01:20:57;16.00;99.90
29453;DHT22;16424;50.956;5.320;2023-08-06T01:23:23;16.10;99.90
29453;DHT22;16424;50.956;5.320;2023-08-06T01:25:58;16.10;99.90
29453;DHT22;16424;50.956;5.320;2023-08-06T01:31:24;16.10;99.90
29453;DHT22;16424;50.956;5.320;2023-08-06T01:33:53;16.00;99.90
29453;DHT22;16424;50.956;5.320;2023-08-06T01:36:20;15.90;99.90
29453;DHT22;16424;50.956;5.320;2023-08-06T01:38:46;15.90;99.90
29453;DHT22;16424;50.956;5.320;2023-08-06T01:41:11;15.80;99.90
29453;DHT22;16424;50.956;5.320;2023-08-06T01:43:37;15.90;99.90
29453;DHT22;16424;50.956;5.320;2023-08-06T01:46:03;15.90;99.90
29453;DHT22;16424;50.956;5.320;2023-08-06T01:48:28;15.80;99.90
29453;DHT22;16424;50.956;5.320;2023-08-06T01:50:54;15.70;99.90
29453;DHT22;16424;50.956;5.320;2023-08-06T01:53:20;15.80;99.90
29453;DHT22;16424;50.956;5.320;2023-08-06T01:55:49;15.90;99.90
29453;DHT22;16424;50.956;5.320;2023-08-06T01:58:15;15.90;99.90
29453;DHT22;16424;50.956;5.320;2023-08-06T02:00:41;16.00;99.90
29453;DHT22;16424;50.956;5.320;2023-08-06T02:03:07;16.10;99.90
29453;DHT22;16424;50.956;5.320;2023-08-06T02:05:32;16.10;99.90
29453;DHT22;16424;50.956;5.320;2023-08-06T02:07:58;16.20;99.90
29453;DHT22;16424;50.956;5.320;2023-08-06T02:10:24;16.30;99.90
29453;DHT22;16424;50.956;5.320;2023-08-06T02:12:49;16.20;99.90
29453;DHT22;16424;50.956;5.320;2023-08-06T02:15:15;16.20;99.90
29453;DHT22;16424;50.956;5.320;2023-08-06T02:17:41;16.00;99.90
29453;DHT22;16424;50.956;5.320;2023-08-06T02:20:07;16.10;99.90
29453;DHT22;16424;50.956;5.320;2023-08-06T02:22:32;16.10;99.90
29453;DHT22;16424;50.956;5.320;2023-08-06T02:24:58;16.10;99.90
29453;DHT22;16424;50.956;5.320;2023-08-06T02:27:24;16.20;99.90
29453;DHT22;16424;50.956;5.320;2023-08-06T02:29:50;16.10;99.90
29453;DHT22;16424;50.956;5.320;2023-08-06T02:32:15;16.00;99.90
29453;DHT22;16424;50.956;5.320;2023-08-06T02:34:41;16.10;99.90
29453;DHT22;16424;50.956;5.320;2023-08-06T02:37:07;16.20;99.90
29453;DHT22;16424;50.956;5.320;2023-08-06T02:39:32;16.30;99.90
29453;DHT22;16424;50.956;5.320;2023-08-06T02:41:59;16.50;99.90
29453;DHT22;16424;50.956;5.320;2023-08-06T02:44:27;16.50;99.90
29453;DHT22;16424;50.956;5.320;2023-08-06T02:46:53;16.60;99.90
29453;DHT22;16424;50.956;5.320;2023-08-06T02:49:19;16.60;99.90
29453;DHT22;16424;50.956;5.320;2023-08-06T02:51:47;16.70;99.90
29453;DHT22;16424;50.956;5.320;2023-08-06T02:54:13;16.60;99.90
29453;DHT22;16424;50.956;5.320;2023-08-06T02:56:39;16.70;99.90
29453;DHT22;16424;50.956;5.320;2023-08-06T02:59:08;16.70;99.90
29453;DHT22;16424;50.956;5.320;2023-08-06T03:01:33;16.80;99.90
29453;DHT22;16424;50.956;5.320;2023-08-06T03:03:59;16.80;99.90
29453;DHT22;16424;50.956;5.320;2023-08-06T03:06:25;16.70;99.90
29453;DHT22;16424;50.956;5.320;2023-08-06T03:08:50;16.70;99.90
29453;DHT22;16424;50.956;5.320;2023-08-06T03:11:16;16.80;99.90
29453;DHT22;16424;50.956;5.320;2023-08-06T03:13:41;16.70;99.90
29453;DHT22;16424;50.956;5.320;2023-08-06T03:16:07;16.70;99.90
29453;DHT22;16424;50.956;5.320;2023-08-06T03:18:33;16.80;99.90
29453;DHT22;16424;50.956;5.320;2023-08-06T03:20:58;16.80;99.90
29453;DHT22;16424;50.956;5.320;2023-08-06T03:23:24;16.80;99.90
29453;DHT22;16424;50.956;5.320;2023-08-06T03:25:50;16.80;99.90
29453;DHT22;16424;50.956;5.320;2023-08-06T03:28:15;16.70;99.90
29453;DHT22;16424;50.956;5.320;2023-08-06T03:30:42;16.70;99.90
29453;DHT22;16424;50.956;5.320;2023-08-06T03:33:07;16.80;99.90
29453;DHT22;16424;50.956;5.320;2023-08-06T03:35:33;16.80;99.90
29453;DHT22;16424;50.956;5.320;2023-08-06T03:37:59;16.90;99.90
29453;DHT22;16424;50.956;5.320;2023-08-06T03:40:24;16.80;99.90
29453;DHT22;16424;50.956;5.320;2023-08-06T03:42:50;16.80;99.90
29453;DHT22;16424;50.956;5.320;2023-08-06T03:45:15;16.80;99.90
29453;DHT22;16424;50.956;5.320;2023-08-06T03:47:41;16.90;99.90
29453;DHT22;16424;50.956;5.320;2023-08-06T03:50:07;16.70;99.90
29453;DHT22;16424;50.956;5.320;2023-08-06T03:52:33;16.60;99.90
29453;DHT22;16424;50.956;5.320;2023-08-06T03:54:58;16.60;99.90
29453;DHT22;16424;50.956;5.320;2023-08-06T03:57:24;16.60;99.90
29453;DHT22;16424;50.956;5.320;2023-08-06T03:59:50;16.60;99.90
29453;DHT22;16424;50.956;5.320;2023-08-06T04:02:15;16.50;99.90
29453;DHT22;16424;50.956;5.320;2023-08-06T04:04:41;16.40;99.90
29453;DHT22;16424;50.956;5.320;2023-08-06T04:07:06;16.30;99.90
29453;DHT22;16424;50.956;5.320;2023-08-06T04:09:32;16.40;99.90
29453;DHT22;16424;50.956;5.320;2023-08-06T04:11:57;16.50;99.90
29453;DHT22;16424;50.956;5.320;2023-08-06T04:14:25;16.40;99.90
29453;DHT22;16424;50.956;5.320;2023-08-06T04:16:51;16.50;99.90
29453;DHT22;16424;50.956;5.320;2023-08-06T04:19:17;16.50;99.90
29453;DHT22;16424;50.956;5.320;2023-08-06T04:21:42;16.50;99.90
29453;DHT22;16424;50.956;5.320;2023-08-06T04:24:08;16.60;99.90
29453;DHT22;16424;50.956;5.320;2023-08-06T04:26:34;16.70;99.90
29453;DHT22;16424;50.956;5.320;2023-08-06T04:28:59;16.70;99.90
29453;DHT22;16424;50.956;5.320;2023-08-06T04:31:25;16.70;99.90
29453;DHT22;16424;50.956;5.320;2023-08-06T04:33:51;16.80;99.90
29453;DHT22;16424;50.956;5.320;2023-08-06T04:36:16;16.80;99.90
29453;DHT22;16424;50.956;5.320;2023-08-06T04:38:42;16.80;99.90
29453;DHT22;16424;50.956;5.320;2023-08-06T04:41:10;16.70;99.90
29453;DHT22;16424;50.956;5.320;2023-08-06T04:43:36;16.80;99.90
29453;DHT22;16424;50.956;5.320;2023-08-06T04:46:02;16.80;99.90
29453;DHT22;16424;50.956;5.320;2023-08-06T04:48:28;16.80;99.90
29453;DHT22;16424;50.956;5.320;2023-08-06T04:50:54;16.80;99.90
29453;DHT22;16424;50.956;5.320;2023-08-06T04:53:20;16.90;99.90
29453;DHT22;16424;50.956;5.320;2023-08-06T04:55:46;16.90;99.90
29453;DHT22;16424;50.956;5.320;2023-08-06T04:58:12;16.90;99.90
29453;DHT22;16424;50.956;5.320;2023-08-06T05:00:38;16.90;99.90
29453;DHT22;16424;50.956;5.320;2023-08-06T05:03:04;16.70;99.90
29453;DHT22;16424;50.956;5.320;2023-08-06T05:05:30;16.50;99.90
29453;DHT22;16424;50.956;5.320;2023-08-06T05:07:57;16.50;99.90
29453;DHT22;16424;50.956;5.320;2023-08-06T05:10:25;16.50;99.90
29453;DHT22;16424;50.956;5.320;2023-08-06T05:12:52;16.50;99.90
29453;DHT22;16424;50.956;5.320;2023-08-06T05:15:18;16.50;99.90
29453;DHT22;16424;50.956;5.320;2023-08-06T05:17:43;16.60;99.90
29453;DHT22;16424;50.956;5.320;2023-08-06T05:20:09;16.70;99.90
29453;DHT22;16424;50.956;5.320;2023-08-06T05:22:35;16.60;99.90
29453;DHT22;16424;50.956;5.320;2023-08-06T05:25:01;16.60;99.90
29453;DHT22;16424;50.956;5.320;2023-08-06T05:27:27;16.40;99.90
29453;DHT22;16424;50.956;5.320;2023-08-06T05:29:55;16.40;99.90
29453;DHT22;16424;50.956;5.320;2023-08-06T05:32:22;16.30;99.90
29453;DHT22;16424;50.956;5.320;2023-08-06T05:34:47;16.20;99.90
29453;DHT22;16424;50.956;5.320;2023-08-06T05:37:13;16.10;99.90
29453;DHT22;16424;50.956;5.320;2023-08-06T05:39:38;16.10;99.90
29453;DHT22;16424;50.956;5.320;2023-08-06T05:42:08;16.10;99.90
29453;DHT22;16424;50.956;5.320;2023-08-06T05:44:33;16.10;99.90
29453;DHT22;16424;50.956;5.320;2023-08-06T05:46:59;16.20;99.90
29453;DHT22;16424;50.956;5.320;2023-08-06T05:49:25;16.20;99.90
29453;DHT22;16424;50.956;5.320;2023-08-06T05:51:50;16.10;99.90
29453;DHT22;16424;50.956;5.320;2023-08-06T05:54:18;16.00;99.90
29453;DHT22;16424;50.956;5.320;2023-08-06T05:56:44;15.80;99.90
29453;DHT22;16424;50.956;5.320;2023-08-06T05:59:10;15.90;99.90
29453;DHT22;16424;50.956;5.320;2023-08-06T06:01:35;15.90;99.90
29453;DHT22;16424;50.956;5.320;2023-08-06T06:04:01;15.80;99.90
29453;DHT22;16424;50.956;5.320;2023-08-06T06:06:27;15.80;99.90
29453;DHT22;16424;50.956;5.320;2023-08-06T06:08:53;15.80;99.90
29453;DHT22;16424;50.956;5.320;2023-08-06T06:11:18;15.80;99.90
29453;DHT22;16424;50.956;5.320;2023-08-06T06:13:49;15.90;99.90
29453;DHT22;16424;50.956;5.320;2023-08-06T06:16:15;15.70;99.90
29453;DHT22;16424;50.956;5.320;2023-08-06T06:18:40;15.60;99.90
29453;DHT22;16424;50.956;5.320;2023-08-06T06:21:06;15.50;99.90
29453;DHT22;16424;50.956;5.320;2023-08-06T06:23:31;15.60;99.90
29453;DHT22;16424;50.956;5.320;2023-08-06T06:25:57;15.50;99.90
29453;DHT22;16424;50.956;5.320;2023-08-06T06:28:23;15.40;99.90
29453;DHT22;16424;50.956;5.320;2023-08-06T06:30:48;15.30;99.90
29453;DHT22;16424;50.956;5.320;2023-08-06T06:33:14;15.20;99.90
29453;DHT22;16424;50.956;5.320;2023-08-06T06:35:40;15.00;99.90
29453;DHT22;16424;50.956;5.320;2023-08-06T06:38:05;14.90;99.90
29453;DHT22;16424;50.956;5.320;2023-08-06T06:40:31;14.90;99.90
29453;DHT22;16424;50.956;5.320;2023-08-06T06:42:58;14.80;99.90
29453;DHT22;16424;50.956;5.320;2023-08-06T06:45:24;14.80;99.90
29453;DHT22;16424;50.956;5.320;2023-08-06T06:47:49;14.80;99.90
29453;DHT22;16424;50.956;5.320;2023-08-06T06:50:15;14.70;99.90
29453;DHT22;16424;50.956;5.320;2023-08-06T06:52:41;14.60;99.90
29453;DHT22;16424;50.956;5.320;2023-08-06T06:55:07;14.60;99.90
29453;DHT22;16424;50.956;5.320;2023-08-06T06:57:33;14.50;99.90
29453;DHT22;16424;50.956;5.320;2023-08-06T06:59:58;14.50;99.90
29453;DHT22;16424;50.956;5.320;2023-08-06T07:02:24;14.50;99.90
29453;DHT22;16424;50.956;5.320;2023-08-06T07:04:50;14.50;99.90
29453;DHT22;16424;50.956;5.320;2023-08-06T07:07:16;14.70;99.90
29453;DHT22;16424;50.956;5.320;2023-08-06T07:09:41;14.70;99.90
29453;DHT22;16424;50.956;5.320;2023-08-06T07:12:07;14.70;99.90
29453;DHT22;16424;50.956;5.320;2023-08-06T07:14:33;14.70;99.90
29453;DHT22;16424;50.956;5.320;2023-08-06T07:16:59;14.80;99.90
29453;DHT22;16424;50.956;5.320;2023-08-06T07:19:24;14.80;99.90
29453;DHT22;16424;50.956;5.320;2023-08-06T07:21:50;14.90;99.90
29453;DHT22;16424;50.956;5.320;2023-08-06T07:24:16;14.90;99.90
29453;DHT22;16424;50.956;5.320;2023-08-06T07:26:42;15.00;99.90
29453;DHT22;16424;50.956;5.320;2023-08-06T07:29:07;15.00;99.90
29453;DHT22;16424;50.956;5.320;2023-08-06T07:31:33;15.00;99.90
29453;DHT22;16424;50.956;5.320;2023-08-06T07:33:59;15.00;99.90
29453;DHT22;16424;50.956;5.320;2023-08-06T07:36:24;15.10;99.90
29453;DHT22;16424;50.956;5.320;2023-08-06T07:38:50;15.10;99.90
29453;DHT22;16424;50.956;5.320;2023-08-06T07:41:23;15.20;99.90
29453;DHT22;16424;50.956;5.320;2023-08-06T07:43:49;15.10;99.90
29453;DHT22;16424;50.956;5.320;2023-08-06T07:46:15;15.20;99.90
29453;DHT22;16424;50.956;5.320;2023-08-06T07:48:40;15.20;99.90
29453;DHT22;16424;50.956;5.320;2023-08-06T07:51:06;15.10;99.90
29453;DHT22;16424;50.956;5.320;2023-08-06T07:53:32;15.10;99.90
29453;DHT22;16424;50.956;5.320;2023-08-06T07:55:57;15.10;99.90
29453;DHT22;16424;50.956;5.320;2023-08-06T07:58:24;15.20;99.90
29453;DHT22;16424;50.956;5.320;2023-08-06T08:00:50;15.30;99.90
29453;DHT22;16424;50.956;5.320;2023-08-06T08:03:16;15.30;99.90
29453;DHT22;16424;50.956;5.320;2023-08-06T08:05:43;15.40;99.90
29453;DHT22;16424;50.956;5.320;2023-08-06T08:08:09;15.50;99.90
29453;DHT22;16424;50.956;5.320;2023-08-06T08:10:34;15.60;99.90
29453;DHT22;16424;50.956;5.320;2023-08-06T08:13:04;15.60;99.90
29453;DHT22;16424;50.956;5.320;2023-08-06T08:15:31;15.60;99.90
29453;DHT22;16424;50.956;5.320;2023-08-06T08:17:57;15.60;99.90
29453;DHT22;16424;50.956;5.320;2023-08-06T08:20:22;15.50;99.90
29453;DHT22;16424;50.956;5.320;2023-08-06T08:22:48;15.50;99.90
29453;DHT22;16424;50.956;5.320;2023-08-06T08:25:15;15.50;99.90
29453;DHT22;16424;50.956;5.320;2023-08-06T08:27:41;15.40;99.90
29453;DHT22;16424;50.956;5.320;2023-08-06T08:30:07;15.60;99.90
29453;DHT22;16424;50.956;5.320;2023-08-06T08:32:32;15.50;99.90
29453;DHT22;16424;50.956;5.320;2023-08-06T08:34:58;15.40;99.90
29453;DHT22;16424;50.956;5.320;2023-08-06T08:37:24;15.40;99.90
29453;DHT22;16424;50.956;5.320;2023-08-06T08:39:49;15.50;99.90
29453;DHT22;16424;50.956;5.320;2023-08-06T08:42:16;15.50;99.90
29453;DHT22;16424;50.956;5.320;2023-08-06T08:44:44;15.40;99.90
29453;DHT22;16424;50.956;5.320;2023-08-06T08:47:10;15.30;99.90
29453;DHT22;16424;50.956;5.320;2023-08-06T08:49:37;15.40;99.90
29453;DHT22;16424;50.956;5.320;2023-08-06T08:52:04;15.40;99.90
29453;DHT22;16424;50.956;5.320;2023-08-06T08:54:35;15.50;99.90
29453;DHT22;16424;50.956;5.320;2023-08-06T08:57:03;15.60;99.90
29453;DHT22;16424;50.956;5.320;2023-08-06T08:59:29;15.50;99.90
29453;DHT22;16424;50.956;5.320;2023-08-06T09:01:55;15.50;99.90
29453;DHT22;16424;50.956;5.320;2023-08-06T09:04:22;15.50;99.90
29453;DHT22;16424;50.956;5.320;2023-08-06T09:06:50;15.40;99.90
29453;DHT22;16424;50.956;5.320;2023-08-06T09:09:29;15.50;99.90
29453;DHT22;16424;50.956;5.320;2023-08-06T09:12:00;15.50;99.90
29453;DHT22;16424;50.956;5.320;2023-08-06T09:14:28;15.50;99.90
29453;DHT22;16424;50.956;5.320;2023-08-06T09:16:54;15.50;99.90
29453;DHT22;16424;50.956;5.320;2023-08-06T09:19:20;15.50;99.90
29453;DHT22;16424;50.956;5.320;2023-08-06T09:21:46;15.50;99.90
29453;DHT22;16424;50.956;5.320;2023-08-06T09:24:15;15.70;99.90
29453;DHT22;16424;50.956;5.320;2023-08-06T09:26:43;15.70;99.90
29453;DHT22;16424;50.956;5.320;2023-08-06T09:29:10;15.70;99.90
29453;DHT22;16424;50.956;5.320;2023-08-06T09:31:50;15.70;99.90
29453;DHT22;16424;50.956;5.320;2023-08-06T09:34:19;15.80;99.90
29453;DHT22;16424;50.956;5.320;2023-08-06T09:36:50;15.90;99.90
29453;DHT22;16424;50.956;5.320;2023-08-06T09:39:29;15.90;99.90
29453;DHT22;16424;50.956;5.320;2023-08-06T09:42:00;16.10;99.90
29453;DHT22;16424;50.956;5.320;2023-08-06T09:44:27;16.10;99.90
29453;DHT22;16424;50.956;5.320;2023-08-06T09:49:21;15.90;99.90
29453;DHT22;16424;50.956;5.320;2023-08-06T09:51:47;15.80;99.90
29453;DHT22;16424;50.956;5.320;2023-08-06T09:54:16;15.90;99.90
29453;DHT22;16424;50.956;5.320;2023-08-06T09:56:43;16.00;99.90
29453;DHT22;16424;50.956;5.320;2023-08-06T09:59:09;16.10;99.90
29453;DHT22;16424;50.956;5.320;2023-08-06T10:01:36;16.00;99.90
29453;DHT22;16424;50.956;5.320;2023-08-06T10:04:04;16.20;99.90
29453;DHT22;16424;50.956;5.320;2023-08-06T10:06:32;16.10;99.90
29453;DHT22;16424;50.956;5.320;2023-08-06T10:08:59;16.10;99.90
29453;DHT22;16424;50.956;5.320;2023-08-06T10:11:25;16.30;99.90
29453;DHT22;16424;50.956;5.320;2023-08-06T10:14:16;16.30;99.90
29453;DHT22;16424;50.956;5.320;2023-08-06T10:16:41;16.20;99.90
29453;DHT22;16424;50.956;5.320;2023-08-06T10:19:09;16.30;99.90
29453;DHT22;16424;50.956;5.320;2023-08-06T10:21:35;16.20;99.90
29453;DHT22;16424;50.956;5.320;2023-08-06T10:24:01;16.30;99.90
29453;DHT22;16424;50.956;5.320;2023-08-06T10:26:29;16.30;99.90
29453;DHT22;16424;50.956;5.320;2023-08-06T10:28:55;16.20;99.90
29453;DHT22;16424;50.956;5.320;2023-08-06T10:31:54;16.00;99.90
29453;DHT22;16424;50.956;5.320;2023-08-06T10:34:22;15.70;99.90
29453;DHT22;16424;50.956;5.320;2023-08-06T10:36:48;15.70;99.90
29453;DHT22;16424;50.956;5.320;2023-08-06T10:39:14;15.70;99.90
29453;DHT22;16424;50.956;5.320;2023-08-06T10:41:42;15.70;99.90
29453;DHT22;16424;50.956;5.320;2023-08-06T10:44:10;15.60;99.90
29453;DHT22;16424;50.956;5.320;2023-08-06T10:46:36;15.60;99.90
29453;DHT22;16424;50.956;5.320;2023-08-06T10:49:03;15.60;99.90
29453;DHT22;16424;50.956;5.320;2023-08-06T10:51:29;15.60;99.90
29453;DHT22;16424;50.956;5.320;2023-08-06T10:53:55;15.60;99.90
29453;DHT22;16424;50.956;5.320;2023-08-06T10:56:24;15.60;99.90
29453;DHT22;16424;50.956;5.320;2023-08-06T10:58:53;15.60;99.90
29453;DHT22;16424;50.956;5.320;2023-08-06T11:01:19;15.50;99.90
29453;DHT22;16424;50.956;5.320;2023-08-06T11:03:47;15.40;99.90
29453;DHT22;16424;50.956;5.320;2023-08-06T11:06:21;15.40;99.90
29453;DHT22;16424;50.956;5.320;2023-08-06T11:08:52;15.40;99.90
29453;DHT22;16424;50.956;5.320;2023-08-06T11:11:18;15.50;99.90
29453;DHT22;16424;50.956;5.320;2023-08-06T11:13:46;15.50;99.90
29453;DHT22;16424;50.956;5.320;2023-08-06T11:16:20;15.50;99.90
29453;DHT22;16424;50.956;5.320;2023-08-06T11:18:47;15.60;99.90
29453;DHT22;16424;50.956;5.320;2023-08-06T11:21:13;15.70;99.90
29453;DHT22;16424;50.956;5.320;2023-08-06T11:23:40;15.80;99.90
29453;DHT22;16424;50.956;5.320;2023-08-06T11:26:06;15.80;99.90
29453;DHT22;16424;50.956;5.320;2023-08-06T11:28:32;15.80;99.90
29453;DHT22;16424;50.956;5.320;2023-08-06T11:30:58;15.70;99.90
29453;DHT22;16424;50.956;5.320;2023-08-06T11:33:28;15.70;99.90
29453;DHT22;16424;50.956;5.320;2023-08-06T11:35:58;15.60;99.90
29453;DHT22;16424;50.956;5.320;2023-08-06T11:38:28;15.60;99.90
29453;DHT22;16424;50.956;5.320;2023-08-06T11:40:54;15.70;99.90
29453;DHT22;16424;50.956;5.320;2023-08-06T11:43:21;15.70;99.90
29453;DHT22;16424;50.956;5.320;2023-08-06T11:45:50;16.00;99.90
29453;DHT22;16424;50.956;5.320;2023-08-06T11:48:16;16.20;99.90
29453;DHT22;16424;50.956;5.320;2023-08-06T11:50:43;16.40;99.90
29453;DHT22;16424;50.956;5.320;2023-08-06T11:53:12;16.50;99.90
29453;DHT22;16424;50.956;5.320;2023-08-06T11:55:38;16.60;99.90
29453;DHT22;16424;50.956;5.320;2023-08-06T11:58:04;16.80;99.90
29453;DHT22;16424;50.956;5.320;2023-08-06T12:00:30;16.80;99.90
29453;DHT22;16424;50.956;5.320;2023-08-06T12:02:56;16.90;99.90
29453;DHT22;16424;50.956;5.320;2023-08-06T12:05:23;16.90;99.90
29453;DHT22;16424;50.956;5.320;2023-08-06T12:07:56;16.70;99.90
29453;DHT22;16424;50.956;5.320;2023-08-06T12:10:24;16.50;99.90
29453;DHT22;16424;50.956;5.320;2023-08-06T12:12:50;16.30;99.90
29453;DHT22;16424;50.956;5.320;2023-08-06T12:15:16;16.10;99.90
29453;DHT22;16424;50.956;5.320;2023-08-06T12:17:43;16.00;99.90
29453;DHT22;16424;50.956;5.320;2023-08-06T12:20:09;15.90;99.90
29453;DHT22;16424;50.956;5.320;2023-08-06T12:22:36;15.80;99.90
29453;DHT22;16424;50.956;5.320;2023-08-06T12:25:09;15.90;99.90
29453;DHT22;16424;50.956;5.320;2023-08-06T12:27:42;15.90;99.90
29453;DHT22;16424;50.956;5.320;2023-08-06T12:30:09;15.60;99.90
29453;DHT22;16424;50.956;5.320;2023-08-06T12:32:35;15.70;99.90
29453;DHT22;16424;50.956;5.320;2023-08-06T12:35:01;15.70;99.90
29453;DHT22;16424;50.956;5.320;2023-08-06T12:37:27;15.80;99.90
29453;DHT22;16424;50.956;5.320;2023-08-06T12:39:53;16.00;99.90
29453;DHT22;16424;50.956;5.320;2023-08-06T12:42:19;16.20;99.90
29453;DHT22;16424;50.956;5.320;2023-08-06T12:44:45;16.20;99.90
29453;DHT22;16424;50.956;5.320;2023-08-06T12:47:10;16.30;99.90
29453;DHT22;16424;50.956;5.320;2023-08-06T12:49:36;16.40;99.90
29453;DHT22;16424;50.956;5.320;2023-08-06T12:52:02;16.50;99.90
29453;DHT22;16424;50.956;5.320;2023-08-06T12:54:30;16.30;99.90
29453;DHT22;16424;50.956;5.320;2023-08-06T12:57:02;16.10;99.90
29453;DHT22;16424;50.956;5.320;2023-08-06T12:59:28;16.10;99.90
29453;DHT22;16424;50.956;5.320;2023-08-06T13:01:53;16.10;99.90
29453;DHT22;16424;50.956;5.320;2023-08-06T13:04:19;16.20;99.90
29453;DHT22;16424;50.956;5.320;2023-08-06T13:06:45;16.20;99.90
29453;DHT22;16424;50.956;5.320;2023-08-06T13:09:10;16.20;99.90
29453;DHT22;16424;50.956;5.320;2023-08-06T13:11:37;16.10;99.90
29453;DHT22;16424;50.956;5.320;2023-08-06T13:14:08;16.10;99.90
29453;DHT22;16424;50.956;5.320;2023-08-06T13:16:36;16.00;99.90
29453;DHT22;16424;50.956;5.320;2023-08-06T13:19:02;15.80;99.90
29453;DHT22;16424;50.956;5.320;2023-08-06T13:21:59;15.60;99.90
29453;DHT22;16424;50.956;5.320;2023-08-06T13:24:26;15.50;99.90
29453;DHT22;16424;50.956;5.320;2023-08-06T13:26:52;15.40;99.90
29453;DHT22;16424;50.956;5.320;2023-08-06T13:29:18;15.30;99.90
29453;DHT22;16424;50.956;5.320;2023-08-06T13:31:44;15.30;99.90
29453;DHT22;16424;50.956;5.320;2023-08-06T13:34:09;15.40;99.90
29453;DHT22;16424;50.956;5.320;2023-08-06T13:36:35;15.60;99.90
29453;DHT22;16424;50.956;5.320;2023-08-06T13:39:01;15.50;99.90
29453;DHT22;16424;50.956;5.320;2023-08-06T13:41:26;15.40;99.90
29453;DHT22;16424;50.956;5.320;2023-08-06T13:43:52;15.40;99.90
29453;DHT22;16424;50.956;5.320;2023-08-06T13:46:18;15.50;99.90
29453;DHT22;16424;50.956;5.320;2023-08-06T13:48:46;15.60;99.90
29453;DHT22;16424;50.956;5.320;2023-08-06T13:51:12;15.50;99.90
29453;DHT22;16424;50.956;5.320;2023-08-06T13:53:39;15.50;99.90
29453;DHT22;16424;50.956;5.320;2023-08-06T13:56:05;15.50;99.90
29453;DHT22;16424;50.956;5.320;2023-08-06T13:58:32;15.50;99.90
29453;DHT22;16424;50.956;5.320;2023-08-06T14:00:58;15.30;99.90
29453;DHT22;16424;50.956;5.320;2023-08-06T14:03:24;15.30;99.90
29453;DHT22;16424;50.956;5.320;2023-08-06T14:05:49;15.30;99.90
29453;DHT22;16424;50.956;5.320;2023-08-06T14:08:16;15.40;99.90
29453;DHT22;16424;50.956;5.320;2023-08-06T14:10:44;15.20;99.90
29453;DHT22;16424;50.956;5.320;2023-08-06T14:13:10;15.10;99.90
29453;DHT22;16424;50.956;5.320;2023-08-06T14:15:35;15.10;99.90
29453;DHT22;16424;50.956;5.320;2023-08-06T14:18:02;15.10;99.90
29453;DHT22;16424;50.956;5.320;2023-08-06T14:20:28;15.20;99.90
29453;DHT22;16424;50.956;5.320;2023-08-06T14:22:54;15.40;99.90
29453;DHT22;16424;50.956;5.320;2023-08-06T14:25:19;15.50;99.90
29453;DHT22;16424;50.956;5.320;2023-08-06T14:27:45;15.70;99.90
29453;DHT22;16424;50.956;5.320;2023-08-06T14:30:11;15.60;99.90
29453;DHT22;16424;50.956;5.320;2023-08-06T14:32:37;15.70;99.90
29453;DHT22;16424;50.956;5.320;2023-08-06T14:35:02;15.90;99.90
29453;DHT22;16424;50.956;5.320;2023-08-06T14:37:28;16.10;99.90
29453;DHT22;16424;50.956;5.320;2023-08-06T14:39:54;16.00;99.90
29453;DHT22;16424;50.956;5.320;2023-08-06T14:42:19;15.90;99.90
29453;DHT22;16424;50.956;5.320;2023-08-06T14:44:45;15.90;99.90
29453;DHT22;16424;50.956;5.320;2023-08-06T14:47:11;15.80;99.90
29453;DHT22;16424;50.956;5.320;2023-08-06T14:49:38;15.80;99.90
29453;DHT22;16424;50.956;5.320;2023-08-06T14:52:04;15.60;99.90
29453;DHT22;16424;50.956;5.320;2023-08-06T14:54:29;15.30;99.90
29453;DHT22;16424;50.956;5.320;2023-08-06T14:56:56;15.20;99.90
29453;DHT22;16424;50.956;5.320;2023-08-06T14:59:22;15.20;99.90
29453;DHT22;16424;50.956;5.320;2023-08-06T15:01:47;15.10;99.90
29453;DHT22;16424;50.956;5.320;2023-08-06T15:04:13;15.20;99.90
29453;DHT22;16424;50.956;5.320;2023-08-06T15:06:39;15.10;99.90
29453;DHT22;16424;50.956;5.320;2023-08-06T15:09:04;15.20;99.90
29453;DHT22;16424;50.956;5.320;2023-08-06T15:11:30;15.20;99.90
29453;DHT22;16424;50.956;5.320;2023-08-06T15:13:56;15.00;99.90
29453;DHT22;16424;50.956;5.320;2023-08-06T15:16:21;15.00;99.90
29453;DHT22;16424;50.956;5.320;2023-08-06T15:18:47;15.10;99.90
29453;DHT22;16424;50.956;5.320;2023-08-06T15:21:14;15.00;99.90
29453;DHT22;16424;50.956;5.320;2023-08-06T15:23:40;15.10;99.90
29453;DHT22;16424;50.956;5.320;2023-08-06T15:26:05;15.20;99.90
29453;DHT22;16424;50.956;5.320;2023-08-06T15:28:31;15.30;99.90
29453;DHT22;16424;50.956;5.320;2023-08-06T15:30:57;15.30;99.90
29453;DHT22;16424;50.956;5.320;2023-08-06T15:33:22;15.30;99.90
29453;DHT22;16424;50.956;5.320;2023-08-06T15:35:48;15.10;99.90